Jean-Luc Fournier

Recruteur en chef - Red Star
7 Nov 2027
Dimanche
Processus

Personnalité

Adaptabilité (3) Ambition (8) Controverse (8) Loyauté (2) Pression (13) Professionnalisme (9) Sportivité (16) Tempérament (17)

Profil

Style d'entraînement Démocratique
Diplôme Continental B
Détermination 6
Gestion des joueurs 11
Motivation 3
Discipline 10
Satisfaction professionnelle
100%
Fatigue
0%
Rôle Recruteur en chef
Salaire 52.3K p/s
Contrat 14.03.2028

Performance

Comportement Bon
Efficacité de l'entraînement
35%
Développement des joueurs
45%
Prévention des blessures
20%
Mise en place tactique
30%

Suivi en cours

166
Joueur Club Statut Capacité Confiance Observé Dernière observation Dernier vote
Pablo Suárez Rentistas Actif 109 / 99 40% 2 31.08.2027 -
Lucas Rodríguez Uruguay Montevideo Actif 109 / 92 40% 1 31.08.2027 -
Alpha Touré FC Metz Actif 118 / 131 40% 1 31.08.2027 -
Iván Ramírez Libertad Actif 122 / 123 40% 3 30.08.2027 -
Luka Andrade Montevideo City Torque Actif 106 / 116 40% 1 30.08.2027 -
Noah Streit CF Montreal Actif 109 / 113 40% 1 30.08.2027 -
William Wendt Stabaek Actif 105 / 104 40% 1 30.08.2027 -
Ibrahim Sabiu Bendel Insurance Actif 95 / 100 40% 2 29.08.2027 -
Noah Mawete Kinsiona Waasland-Beveren Actif 97 / 114 40% 2 29.08.2027 -
Agustín Kahl Racing Actif 91 / 117 40% 1 28.08.2027 -
Johan Solstad-Nøis Haugesund Actif 99 / 98 40% 1 28.08.2027 -
Genesis Antwi Chelsea Actif 105 / 117 40% 1 28.08.2027 -
Great Agbo AS DGSSIE Actif 68 / 71 40% 2 27.08.2027 -
Algassime Bah Dinamo Tbilisi Actif 101 / 90 40% 1 27.08.2027 -
Manuel López Defensores Unidos Actif 113 / 94 40% 5 26.08.2027 -
Darren Yapi Colorado Rapids Actif 106 / 113 40% 2 26.08.2027 -
Alexander Fesshaie Helsingborg Actif 99 / 96 40% 1 25.08.2027 -
Frederik Ihler IF Elfsborg Actif 116 / 122 40% 1 24.08.2027 -
Jere Vrcić Birkirkara Actif 105 / 96 40% 1 24.08.2027 -
Roald Mitchell New York Red Bulls Actif 83 / 108 40% 2 23.08.2027 -
Ezekiel Kwame Alladoh Philadelphia Union Actif 120 / 126 40% 1 23.08.2027 -
Angel Uñates Güemes Actif 83 / 104 40% 2 22.08.2027 -
Alejandro Piedrahita Deportivo Pereira Actif 125 / 131 40% 3 22.08.2027 -
Wilfred Correa Caracas Actif 97 / 104 40% 1 22.08.2027 -
Anthony da Costa Artigas Actif 68 / 94 40% 1 22.08.2027 -
Jalal Abdullai Molde Actif 124 / 122 40% 1 21.08.2027 -
Godwin Oham Warri Wolves Actif 101 / 90 40% 3 19.08.2027 -
Pablo Alcoba Albion Actif 72 / 87 40% 1 19.08.2027 -
Ibrahim Coulibaly Clermont Foot Actif 121 / 126 40% 2 18.08.2027 -
Matheus Nascimento Chicago Fire Actif 119 / 134 40% 4 18.08.2027 -
Félix Noubara AS PSI Actif 69 / 65 40% 1 18.08.2027 -
Destiny Efosa Egharevba Picerno Actif 100 / 114 40% 3 17.08.2027 -
Giacomo Sali AlbinoLeffe Actif 106 / 109 40% 1 17.08.2027 -
Jackson Imbiakha Muranga Seal Actif 62 / 74 40% 1 17.08.2027 -
Josué Kongolo Racing Genk Actif 110 / 121 40% 1 17.08.2027 -
Bryan Caicedo Leones Actif 106 / 91 40% 1 16.08.2027 -
Didier Dawson Envigado Actif 93 / 99 40% 2 15.08.2027 -
Mateo Lizondo Colón Actif 85 / 102 40% 1 15.08.2027 -
Nicolás Ferreira Artigas Actif 66 / 95 40% 2 14.08.2027 -
Diego Betancourth General Diaz Actif 84 / 98 40% 1 13.08.2027 -
Justin-Noël Kalumba Mallorca Actif 119 / 128 40% 1 12.08.2027 -
Asanele Shibe Agia Napa Actif 87 / 89 40% 1 12.08.2027 -
Kenan Busuladžić Halmstad Actif 109 / 119 40% 1 11.08.2027 -
Matías Núñez Atenas Actif 90 / 93 40% 1 11.08.2027 -
Tyler Wolff Real Salt Lake Actif 114 / 117 40% 2 10.08.2027 -
Alan Coria Villarreal Actif 102 / 120 40% 2 10.08.2027 -
Okardi Inikurogha Bayelsa United Actif 106 / 91 40% 2 07.08.2027 -
Bariş Kalaycı Fatih Karagumruk Actif 95 / 116 40% 2 07.08.2027 -
Luis Palacios Tigres Actif 107 / 120 40% 3 04.08.2027 -
Malick Sylla Ravenna Actif 82 / 90 40% 1 04.08.2027 -
Sonny Cox Exeter City Actif 97 / 102 40% 3 01.08.2027 -
Nahuel Albano La Luz Actif 99 / 99 40% 1 01.08.2027 -
Teo Rodríguez Pagano San Lorenzo Actif 123 / 128 40% 1 01.08.2027 -
Mihajlo Cvetković Anderlecht Actif 124 / 129 40% 1 01.08.2027 -
Jack Waldron Cittadella Actif 76 / 82 40% 1 30.07.2027 -
Jonás Luna Wanderers Actif 132 / 109 40% 3 28.07.2027 -
Alexandre Duville-Parsemain Moreirense Actif 117 / 121 40% 1 28.07.2027 -
Archie Goodwin Charlotte Football Club Actif 109 / 124 40% 2 27.07.2027 -
Santiago Rey Real Santander Actif 87 / 99 40% 1 27.07.2027 -
Patrick Preciado Deportivo Pasto Actif 110 / 107 40% 1 26.07.2027 -
Isa Sakamoto Westerlo Actif 116 / 120 40% 9 25.07.2027 -
Nahuel Gelos Miramar Misiones Actif 100 / 107 40% 1 24.07.2027 -
Nathan Doualla Canon Yaounde Actif 88 / 88 40% 1 24.07.2027 -
Diogo Guzmán Montevideo City Torque Actif 109 / 127 40% 1 24.07.2027 -
Sixtus Ogbuehi KV Kortrijk Actif 100 / 108 40% 3 21.07.2027 -
Halil Özdemir KV Mechelen Actif 112 / 115 40% 1 21.07.2027 -
Lautaro Millán Independiente Actif 132 / 119 40% 1 21.07.2027 -
Yassine Khalifi Charleroi Actif 103 / 112 40% 2 20.07.2027 -
Mats Egbring Heerenveen Actif 106 / 105 40% 3 20.07.2027 -
Nazareno Roselli Defensa y Justicia Actif 110 / 112 40% 2 19.07.2027 -
Mathys Angély VfL Wolfsburg Actif 104 / 127 40% 1 19.07.2027 -
Chinedu Onyinjekwu Bayelsa United Actif 98 / 91 40% 2 18.07.2027 -
Borna Knezović Casarano Actif 102 / 120 40% 4 17.07.2027 -
Shaq Forde Bristol Rovers Actif 95 / 108 40% 1 17.07.2027 -
Ardit Tahiri Kolos Actif 117 / 115 40% 2 16.07.2027 -
Martim Cunha Porto Actif 97 / 117 40% 1 16.07.2027 -
Jorge Meireles AVS Actif 105 / 108 40% 5 15.07.2027 -
Dmitry Zheltukhin Rodina M Actif 68 / 70 40% 1 15.07.2027 -
Bogdan Petrović TSC Actif 112 / 107 40% 3 12.07.2027 -
Ünal Durmuşhan Hatayspor Actif 102 / 86 40% 1 12.07.2027 -
Berna CSKA 1948 Actif 111 / 111 40% 1 11.07.2027 -
Sipho Ngqakabana AS Police Actif 72 / 88 40% 1 11.07.2027 -
Alexis Vossah Toulouse FC Actif 123 / 138 40% 1 11.07.2027 -
Pedro Borges Exeter City Actif 81 / 91 40% 2 10.07.2027 -
Marco Oroná Antofagasta Actif 87 / 105 40% 1 10.07.2027 -
Vasyl Bundash Metalurh Zaporizhzhia Actif 101 / 95 40% 1 09.07.2027 -
Hilmir Rafn Mikaelsson Sigma Olomouc Actif 131 / 109 40% 1 07.07.2027 -
Carlos Paraco Metalist Actif 123 / 127 40% 4 06.07.2027 -
Surkhaikhan Abdullaev KAMAZ Actif 79 / 102 40% 1 06.07.2027 -
Juho Lähteenmäki FC Nordsjaelland Actif 136 / 112 40% 1 06.07.2027 -
Aleksej Golijanin Sokol Actif 81 / 103 40% 2 04.07.2027 -
Elie N'Gatta Sochaux Actif 94 / 99 40% 1 04.07.2027 -
Juan David Obando Dinamo Barnaul Actif 87 / 97 40% 1 04.07.2027 -
Mathis Amougou RC Strasbourg Actif 123 / 123 40% 2 03.07.2027 -
Lukáš Mašek Slovan Liberec Actif 109 / 108 40% 2 03.07.2027 -
Renzo Machado Liverpool Montevideo Actif 122 / 104 40% 1 29.06.2027 -
Lorenzo De Leo Renate Actif 106 / 113 40% 2 25.06.2027 -
Khaled Al-Nabris Ismaily Actif 112 / 113 40% 2 24.06.2027 -
Calum Kavanagh Oldham Athletic Actif 93 / 92 40% 1 24.06.2027 -
Shandre Campbell KV Kortrijk Actif 116 / 118 40% 3 23.06.2027 -
Yaroslav Karabin Karpaty Actif 122 / 98 40% 1 23.06.2027 -
Mfundo Vilakazi Kaizer Chiefs Actif 129 / 132 40% 1 23.06.2027 -
Hlompho Billiat Free State Stars Actif 76 / 83 40% 1 22.06.2027 -
Joseph Jones Kryvbas Actif 88 / 85 40% 1 21.06.2027 -
Pele Smith Fleetwood Town Actif 74 / 75 40% 1 21.06.2027 -
Thomas De Ketelaere Mouscron Actif 90 / 95 40% 1 19.06.2027 -
Samson Tovide Colchester United Actif 98 / 100 40% 3 18.06.2027 -
Radek Šiler Podbrezova Actif 96 / 117 40% 2 17.06.2027 -
Jan Bürger Preston Actif 117 / 114 40% 1 17.06.2027 -
Daou Diomandé Valenciennes Actif 89 / 110 40% 1 16.06.2027 -
Youssuf Sylla Jagiellonia Actif 119 / 110 40% 1 16.06.2027 -
Nikolay Zlatev Cherno More Actif 89 / 104 40% 2 14.06.2027 -
Danylo Honcharuk Probiy Actif 95 / 78 40% 2 14.06.2027 -
Benjamin Merba Foullah Edifice Actif 73 / 64 40% 1 14.06.2027 -
Denis Mironov Shinnik Actif 78 / 80 40% 1 13.06.2027 -
Molemo Seemela Zvezda Actif 83 / 82 40% 1 11.06.2027 -
Migran Ageyan Ufa Actif 98 / 105 40% 1 08.06.2027 -
Alessandro Bolzan Sorrento Actif 95 / 91 40% 1 08.06.2027 -
Matías Lozano Atletico Nacional Actif 112 / 127 40% 1 07.06.2027 -
Noah Adedeji-Sternberg Racing Genk Actif 115 / 125 40% 2 06.06.2027 -
Mattia Della Rocca Pontedera Actif 81 / 105 40% 1 06.06.2027 -
Lazar Mijović Cukaricki Actif 99 / 122 40% 1 04.06.2027 -
José Bica Leixões Actif 106 / 102 40% 1 03.06.2027 -
Khayon Edwards Estoril Praia Actif 110 / 103 40% 1 01.06.2027 -
Lander Astiazarán Real Sociedad Actif 95 / 121 40% 1 01.06.2027 -
Jerome Karelse Golden Arrows Actif 104 / 96 40% 1 31.01.2027 -
Bradley Fink Wycombe Wanderers Actif 119 / 114 40% 2 29.01.2027 -
Jason Kompany KV Oostende Actif 139 / 132 40% 2 28.01.2027 -
Andrija Bulatović RC Lens Actif 126 / 122 40% 1 28.01.2027 -
Juan Rodríguez Cagliari Actif 122 / 116 40% 1 27.01.2027 -
James Dornelly Peterborough United Actif 93 / 100 40% 1 27.01.2027 -
Dylan Nandín Arouca Actif 113 / 118 40% 1 25.01.2027 -
Maximiliano Caufriez KV Oostende Actif 116 / 132 40% 1 22.01.2027 -
Fawaaz Basadien Mamelodi Sundowns Actif 130 / 102 40% 1 21.01.2027 -
Jean-Baptiste Roger Tours Actif 134 / 113 40% 1 21.01.2027 -
Alan Mozo Pachuca Actif 130 / 113 40% 2 20.01.2027 -
Marius Courcoul Olympique de Marseille Actif 108 / 128 40% 1 20.01.2027 -
Santiago Simón Toluca Actif 133 / 120 40% 1 18.01.2027 -
Mandla Mothiba Free State Stars Actif 99 / 110 40% 1 16.01.2027 -
Enis Destan Konyaspor Actif 124 / 118 40% 1 13.01.2027 -
Keano Vanrafelghem KV Mechelen Actif 113 / 106 40% 1 10.01.2027 -
Ryotaro Araki Sint-Truiden Actif 108 / 111 40% 2 09.01.2027 -
Tobías Cervera SonderjyskE Actif 128 / 121 40% 1 07.01.2027 -
Mees Rijks Bristol Rovers Actif 103 / 106 40% 3 06.01.2027 -
Rajmund Molnár Pogon Actif 119 / 105 40% 1 04.01.2027 -
Kelvin John Aalborg Actif 109 / 94 40% 1 01.01.2027 -
Matheus Alves CSKA Moscow Actif 130 / 125 40% 1 30.08.2026 -
Genaro Rossi San Martín SJ Actif 119 / 100 40% 1 29.08.2026 -
Agustín Venezia Iquique Actif 117 / 110 40% 3 27.08.2026 -
Victor Ferraresi Llaneros Actif 103 / 104 40% 1 27.08.2026 -
José Pachuca Puebla Actif 92 / 106 40% 1 26.08.2026 -
Francisco Bonfiglio Boston River Actif 94 / 101 40% 1 24.08.2026 -
Jeong Sang-Bin St. Louis CITY SC Actif 99 / 131 40% 1 24.08.2026 -
Julián Vignolo Toulouse FC Actif 108 / 123 40% 1 19.08.2026 -
Myron van Brederode KV Mechelen Actif 115 / 123 40% 2 17.08.2026 -
Zion Henry Racing Genk Actif 73 / 78 40% 1 17.08.2026 -
Sacha Farruggia Charleroi Actif 71 / 72 40% 1 17.08.2026 -
Louis Albert Cissé RC Strasbourg Actif 81 / 89 62% 1 10.08.2026 Approuver
Esteban Obregón Montevideo City Torque Actif 119 / 125 40% 1 09.08.2026 -
Mateo Mendoza Godoy Cruz Actif 109 / 120 40% 1 08.08.2026 -
Ilay Feingold New England Revolution Actif 113 / 123 40% 1 08.08.2026 -
Rayan Fofana RC Lens Actif 119 / 125 40% 2 07.08.2026 -
Malik Mothersille Stockport County Actif 107 / 107 40% 1 06.08.2026 -
Moussa Diallo Stade Malien Actif 80 / 106 40% 1 04.08.2026 -
Samed Baždar Sint-Truiden Actif 127 / 115 40% 1 02.08.2026 -
Idan Toklomati Charlotte Football Club Actif 110 / 127 40% 1 02.08.2026 -